createdAt,value
2022-08-24T00:02:20.636Z,17.00
2022-08-24T00:07:27.250Z,16.80
2022-08-24T00:12:31.581Z,16.70
2022-08-24T00:17:34.489Z,16.60
2022-08-24T00:22:37.534Z,16.60
2022-08-24T00:27:41.919Z,16.50
2022-08-24T00:32:46.955Z,16.40
2022-08-24T00:37:51.457Z,16.30
2022-08-24T00:42:55.599Z,16.20
2022-08-24T00:48:03.355Z,16.10
2022-08-24T00:53:15.792Z,16.00
2022-08-24T00:58:23.850Z,15.90
2022-08-24T01:03:28.486Z,15.80
2022-08-24T01:08:31.283Z,15.70
2022-08-24T01:13:35.034Z,15.60
2022-08-24T01:18:52.344Z,15.50
2022-08-24T01:23:59.702Z,15.40
2022-08-24T01:29:10.457Z,15.40
2022-08-24T01:34:13.510Z,15.30
2022-08-24T01:39:18.235Z,15.20
2022-08-24T01:44:23.258Z,15.10
2022-08-24T01:49:29.757Z,15.00
2022-08-24T01:54:32.742Z,15.00
2022-08-24T01:59:36.075Z,14.90
2022-08-24T02:04:39.348Z,14.90
2022-08-24T02:09:42.453Z,14.80
2022-08-24T02:14:45.230Z,14.70
2022-08-24T02:19:48.389Z,14.60
2022-08-24T02:24:51.526Z,14.60
2022-08-24T02:29:54.392Z,14.50
2022-08-24T02:34:57.158Z,14.50
2022-08-24T02:40:00.521Z,14.40
2022-08-24T02:45:04.152Z,14.40
2022-08-24T02:50:12.094Z,14.30
2022-08-24T02:55:19.961Z,14.30
2022-08-24T03:00:25.221Z,14.20
2022-08-24T03:05:29.458Z,14.10
2022-08-24T03:10:33.202Z,14.10
2022-08-24T03:15:36.420Z,14.10
2022-08-24T03:20:39.741Z,14.00
2022-08-24T03:25:42.712Z,14.00
2022-08-24T03:30:48.218Z,13.90
2022-08-24T03:35:53.535Z,13.90
2022-08-24T03:40:58.355Z,13.80
2022-08-24T03:46:03.031Z,13.80
2022-08-24T03:51:11.395Z,13.80
2022-08-24T03:56:14.134Z,13.80
2022-08-24T04:01:18.212Z,13.70
2022-08-24T04:06:22.771Z,13.70
2022-08-24T04:11:29.175Z,13.60
2022-08-24T04:16:33.647Z,13.60
2022-08-24T04:21:45.781Z,13.60
2022-08-24T04:26:49.116Z,13.60
2022-08-24T04:31:53.657Z,13.60
2022-08-24T04:36:57.597Z,13.50
2022-08-24T04:42:03.208Z,13.50
2022-08-24T04:47:11.144Z,13.50
2022-08-24T04:52:14.661Z,13.60
2022-08-24T04:57:18.952Z,13.60
2022-08-24T05:02:23.091Z,13.80
2022-08-24T05:07:27.446Z,13.90
2022-08-24T05:12:30.338Z,14.10
2022-08-24T05:17:37.147Z,14.20
2022-08-24T05:22:42.843Z,14.40
2022-08-24T05:27:45.802Z,14.50
2022-08-24T05:32:49.485Z,14.70
2022-08-24T05:37:52.967Z,14.90
2022-08-24T05:42:56.192Z,15.20
2022-08-24T05:47:59.041Z,15.40
2022-08-24T05:53:22.165Z,15.70
2022-08-24T05:58:31.269Z,15.90
2022-08-24T06:03:38.761Z,16.10
2022-08-24T06:08:47.019Z,16.50
2022-08-24T06:13:57.441Z,16.70
2022-08-24T06:19:06.997Z,17.00
2022-08-24T06:24:10.623Z,17.20
2022-08-24T06:29:14.282Z,17.40
2022-08-24T06:34:20.954Z,17.60
2022-08-24T06:39:24.361Z,17.80
2022-08-24T06:44:31.221Z,18.00
2022-08-24T06:49:51.731Z,18.20
2022-08-24T06:54:54.757Z,18.40
2022-08-24T06:59:57.521Z,18.50
2022-08-24T07:05:01.121Z,18.70
2022-08-24T07:10:23.052Z,18.90
2022-08-24T07:15:28.889Z,19.00
2022-08-24T07:20:43.848Z,19.20
2022-08-24T07:25:56.084Z,19.30
2022-08-24T07:31:03.856Z,19.40
2022-08-24T07:36:16.928Z,19.50
2022-08-24T07:41:43.484Z,19.60
2022-08-24T07:46:52.621Z,19.70
2022-08-24T07:51:55.664Z,19.80
2022-08-24T07:57:02.543Z,19.90
2022-08-24T08:02:08.344Z,20.00
2022-08-24T08:07:12.544Z,20.10
2022-08-24T08:12:15.827Z,20.20
2022-08-24T08:17:29.661Z,20.30
2022-08-24T08:22:51.218Z,20.40
2022-08-24T08:28:25.523Z,20.60
2022-08-24T08:33:30.197Z,20.70
2022-08-24T08:38:34.053Z,20.90
2022-08-24T08:44:01.938Z,21.10
2022-08-24T08:49:13.758Z,21.50
2022-08-24T08:54:34.022Z,21.90
2022-08-24T09:00:25.138Z,22.30
2022-08-24T09:05:58.953Z,22.80
2022-08-24T09:11:37.786Z,23.10
2022-08-24T09:17:15.999Z,23.20
2022-08-24T09:22:21.506Z,23.20
2022-08-24T09:27:36.282Z,23.40
2022-08-24T09:33:03.146Z,23.80
2022-08-24T09:38:33.099Z,24.30
2022-08-24T09:44:01.437Z,24.40
2022-08-24T09:49:33.865Z,24.80
2022-08-24T09:55:20.170Z,25.00
2022-08-24T10:00:26.134Z,25.00
2022-08-24T10:05:47.494Z,25.10
2022-08-24T10:11:18.535Z,25.10
2022-08-24T10:16:30.595Z,24.90
2022-08-24T10:22:04.477Z,24.90
2022-08-24T10:27:15.421Z,24.70
2022-08-24T10:32:41.861Z,24.80
2022-08-24T10:38:40.915Z,24.60
2022-08-24T10:44:05.855Z,24.60
2022-08-24T10:49:40.302Z,24.70
2022-08-24T10:54:43.369Z,24.60
2022-08-24T10:59:51.928Z,24.50
2022-08-24T11:05:01.301Z,24.80
2022-08-24T11:10:10.198Z,24.90
2022-08-24T11:15:18.863Z,25.00
2022-08-24T11:20:34.048Z,25.10
2022-08-24T11:25:40.417Z,25.00
2022-08-24T11:30:43.340Z,24.80
2022-08-24T11:35:46.113Z,24.90
2022-08-24T11:40:57.713Z,24.90
2022-08-24T11:46:25.106Z,25.00
2022-08-24T11:51:35.881Z,25.00
2022-08-24T11:56:57.941Z,25.00
2022-08-24T12:02:05.543Z,25.00
2022-08-24T12:07:26.498Z,25.00
2022-08-24T12:13:03.694Z,25.10
2022-08-24T12:18:25.481Z,25.20
2022-08-24T12:23:42.150Z,25.20
2022-08-24T12:28:54.431Z,25.30
2022-08-24T12:34:02.671Z,25.40
2022-08-24T12:39:10.835Z,25.50
2022-08-24T12:44:17.034Z,25.60
2022-08-24T12:49:49.666Z,25.70
2022-08-24T12:55:16.387Z,25.60
2022-08-24T13:00:29.358Z,25.70
2022-08-24T13:05:57.685Z,25.60
2022-08-24T13:11:14.222Z,25.60
2022-08-24T13:16:55.263Z,25.50
2022-08-24T13:22:20.949Z,25.50
2022-08-24T13:27:23.617Z,25.60
2022-08-24T13:32:39.096Z,25.60
2022-08-24T13:37:42.437Z,25.70
2022-08-24T13:43:30.391Z,25.90
2022-08-24T13:48:48.533Z,25.90
2022-08-24T13:53:57.124Z,25.90
2022-08-24T13:59:10.406Z,25.90
2022-08-24T14:04:31.427Z,25.90
2022-08-24T14:09:46.110Z,25.80
2022-08-24T14:15:28.032Z,25.90
2022-08-24T14:20:49.657Z,25.80
2022-08-24T14:26:31.563Z,25.80
2022-08-24T14:31:34.803Z,25.80
2022-08-24T14:36:57.644Z,25.80
2022-08-24T14:42:21.148Z,25.80
2022-08-24T14:47:59.076Z,25.90
2022-08-24T14:53:29.959Z,25.90
2022-08-24T14:59:14.755Z,25.90
2022-08-24T15:04:48.491Z,25.80
2022-08-24T15:09:52.649Z,25.80
2022-08-24T15:15:03.369Z,25.90
2022-08-24T15:20:42.545Z,25.90
2022-08-24T15:25:52.482Z,25.90
2022-08-24T15:31:23.925Z,25.80
2022-08-24T15:36:33.242Z,25.90
2022-08-24T15:41:39.847Z,25.70
2022-08-24T15:46:56.471Z,25.70
2022-08-24T15:52:06.478Z,25.60
2022-08-24T15:57:29.456Z,25.60
2022-08-24T16:02:36.037Z,25.60
2022-08-24T16:08:04.288Z,25.50
2022-08-24T16:13:20.726Z,25.50
2022-08-24T16:18:44.225Z,25.50
2022-08-24T16:23:55.639Z,25.40
2022-08-24T16:28:58.830Z,25.40
2022-08-24T16:34:32.716Z,25.30
2022-08-24T16:39:35.916Z,25.20
2022-08-24T16:44:42.514Z,25.10
2022-08-24T16:49:45.346Z,24.90
2022-08-24T16:54:48.921Z,24.80
2022-08-24T16:59:53.163Z,24.70
2022-08-24T17:04:56.566Z,24.60
2022-08-24T17:10:02.649Z,24.60
2022-08-24T17:15:08.002Z,24.40
2022-08-24T17:20:11.828Z,24.20
2022-08-24T17:25:14.604Z,24.10
2022-08-24T17:30:18.589Z,23.90
2022-08-24T17:35:22.905Z,23.70
2022-08-24T17:40:26.934Z,23.60
2022-08-24T17:45:29.746Z,23.50
2022-08-24T17:50:32.613Z,23.40
2022-08-24T17:55:35.430Z,23.20
2022-08-24T18:00:39.219Z,23.00
2022-08-24T18:05:42.185Z,22.90
2022-08-24T18:10:44.955Z,22.70
2022-08-24T18:15:50.687Z,22.40
2022-08-24T18:20:53.959Z,22.20
2022-08-24T18:25:56.794Z,22.00
2022-08-24T18:31:01.561Z,21.80
2022-08-24T18:36:04.589Z,21.60
2022-08-24T18:41:07.512Z,21.50
2022-08-24T18:46:10.595Z,21.30
2022-08-24T18:51:19.011Z,21.10
2022-08-24T18:56:21.774Z,20.80
2022-08-24T19:01:25.783Z,20.70
2022-08-24T19:06:28.607Z,20.50
2022-08-24T19:11:31.367Z,20.40
2022-08-24T19:16:34.679Z,20.20
2022-08-24T19:21:38.161Z,20.00
2022-08-24T19:26:40.987Z,19.90
2022-08-24T19:31:43.855Z,19.80
2022-08-24T19:36:46.685Z,19.60
2022-08-24T19:41:50.688Z,19.50
2022-08-24T19:46:57.009Z,19.40
2022-08-24T19:52:03.397Z,19.20
2022-08-24T19:57:24.881Z,19.10
2022-08-24T20:02:28.136Z,18.90
2022-08-24T20:07:30.916Z,18.90
2022-08-24T20:12:33.755Z,18.80
2022-08-24T20:17:39.071Z,18.70
2022-08-24T20:22:41.786Z,18.60
2022-08-24T20:27:45.907Z,18.50
2022-08-24T20:32:48.647Z,18.40
2022-08-24T20:37:51.523Z,18.30
2022-08-24T20:42:54.228Z,18.30
2022-08-24T20:47:57.887Z,18.20
2022-08-24T20:53:01.534Z,18.10
2022-08-24T20:58:04.530Z,18.00
2022-08-24T21:03:07.333Z,18.00
2022-08-24T21:08:11.901Z,17.90
2022-08-24T21:13:14.660Z,17.90
2022-08-24T21:18:17.526Z,17.80
2022-08-24T21:23:20.438Z,17.70
2022-08-24T21:28:23.917Z,17.60
2022-08-24T21:33:45.167Z,17.60
2022-08-24T21:38:47.841Z,17.50
2022-08-24T21:43:51.541Z,17.40
2022-08-24T21:48:54.290Z,17.40
2022-08-24T21:53:57.081Z,17.30
2022-08-24T21:59:06.016Z,17.20
2022-08-24T22:04:09.010Z,17.10
2022-08-24T22:09:11.870Z,17.10
2022-08-24T22:14:16.855Z,17.00
2022-08-24T22:19:19.702Z,17.00
2022-08-24T22:24:22.464Z,16.90
2022-08-24T22:29:25.401Z,16.80
2022-08-24T22:34:28.290Z,16.80
2022-08-24T22:39:31.222Z,16.70
2022-08-24T22:44:34.758Z,16.70
2022-08-24T22:49:40.646Z,16.60
2022-08-24T22:54:43.645Z,16.50
2022-08-24T22:59:46.449Z,16.50
2022-08-24T23:04:52.328Z,16.40
2022-08-24T23:09:55.210Z,16.40
2022-08-24T23:14:58.093Z,16.30
2022-08-24T23:20:01.140Z,16.20
2022-08-24T23:25:07.226Z,16.20
2022-08-24T23:30:12.869Z,16.10
2022-08-24T23:35:15.946Z,16.10
2022-08-24T23:40:20.281Z,16.10
2022-08-24T23:45:28.029Z,16.00
2022-08-24T23:50:30.895Z,16.00
2022-08-24T23:55:33.655Z,15.90
